Bailey, Colorado
Current Conditions -  °F | °C
As of 5:50 AM on Thursday 30 Oct 2014 (Local Time) from K0CO Reporting Station
Overcast Overcast  
Wind Chill:   Ceiling: 3500
Heat Index: 23°   Visibility: 10mi
Dew Point: 19°   Wind: 31mph
Humidity: 86%   Direction: 310°NW
Pressure: 30.49"   Gusts: 39mph
Location:  39.41°N, 105.47°W
Report Text: K0CO 301150Z AUTO 31027G34KT 10SM OVC035 M05/M07 A3049 RMK AO2
Loading
Personal Weather Stations






























Interactive Weather Map
Tropical Storm Tracking
New forecast layout! Learn more

10-Day Weather Forecast

Advertisements
Track Severe Weather on mobile